Time;durP1;ratioP1;P1;durP2;ratioP2;P2;SDS_P1;SDS_P2;PMS_P1;PMS_P2;Temp;Humidity;BMP_temperature;BMP_pressure;BME280_temperature;BME280_humidity;BME280_pressure;Samples;Min_cycle;Max_cycle;Signal;HPM_P1;HPM_P2
2022/06/19 00:08:02;;;;;;;17.33;3.20;;;26.90;84.60;;;;;;6621915;89;20231;-79
2022/06/19 00:18:03;;;;;;;12.73;3.20;;;27.00;83.40;;;;;;6637837;88;20657;-78
2022/06/19 00:28:04;;;;;;;16.77;3.28;;;27.20;82.50;;;;;;6632890;88;20200;-79
2022/06/19 00:38:05;;;;;;;10.85;3.37;;;27.20;82.30;;;;;;6624006;88;20217;-78
2022/06/19 00:48:12;;;;;;;16.80;3.10;;;27.30;81.20;;;;;;6642254;88;20198;-80
2022/06/19 00:58:34;;;;;;;15.43;3.55;;;27.40;81.20;;;;;;6638731;89;20505;-79
2022/06/19 01:08:35;;;;;;;13.00;2.97;;;27.20;81.60;;;;;;6640405;89;20193;-78
2022/06/19 01:18:38;;;;;;;12.77;3.25;;;27.10;81.50;;;;;;6645970;88;20306;-78
2022/06/19 01:28:55;;;;;;;15.32;3.10;;;27.10;81.90;;;;;;6625133;89;20301;-78
2022/06/19 01:38:57;;;;;;;12.20;3.72;;;27.10;81.80;;;;;;6637096;89;20266;-78
2022/06/19 01:48:58;;;;;;;16.00;3.53;;;27.10;82.00;;;;;;6641215;89;20242;-77
2022/06/19 01:59:05;;;;;;;15.43;3.50;;;26.90;82.40;;;;;;6642785;89;20193;-78
2022/06/19 02:09:06;;;;;;;13.82;3.28;;;26.70;83.30;;;;;;6635947;89;20249;-78
2022/06/19 02:19:08;;;;;;;13.73;3.10;;;26.50;83.50;;;;;;6633786;88;20292;-78
2022/06/19 02:29:11;;;;;;;19.73;3.15;;;26.40;84.40;;;;;;6640811;89;20973;-78
2022/06/19 02:39:32;;;;;;;;;;;26.20;84.10;;;;;;6643694;88;20193;-79
2022/06/19 02:49:33;;;;;;;10.15;2.90;;;26.10;83.70;;;;;;6642297;89;20265;-78
2022/06/19 02:59:34;;;;;;;13.27;2.97;;;26.10;83.40;;;;;;6638686;89;20197;-78
2022/06/19 03:09:35;;;;;;;16.15;2.90;;;26.30;82.50;;;;;;6638242;89;20887;-78
2022/06/19 03:19:35;;;;;;;14.90;2.97;;;26.20;82.50;;;;;;6638846;89;20697;-79
2022/06/19 03:29:36;;;;;;;16.73;3.25;;;26.30;82.30;;;;;;6634545;89;20267;-78
2022/06/19 03:39:37;;;;;;;13.40;3.25;;;26.20;82.50;;;;;;6639420;88;20323;-82
2022/06/19 03:49:37;;;;;;;14.77;3.53;;;26.20;82.50;;;;;;6635481;88;20229;-79
2022/06/19 03:59:38;;;;;;;18.33;3.45;;;25.80;83.50;;;;;;6627560;89;21100;-78
2022/06/19 04:09:38;;;;;;;11.90;4.87;;;25.40;86.10;;;;;;6633030;89;20201;-79
2022/06/19 04:19:39;;;;;;;10.07;4.15;;;23.90;97.60;;;;;;6640063;88;20263;-78
2022/06/19 04:29:39;;;;;;;17.27;3.80;;;22.30;99.90;;;;;;6639244;88;20218;-79
2022/06/19 04:39:40;;;;;;;13.93;3.15;;;21.30;99.90;;;;;;6628011;89;20214;-78
2022/06/19 04:49:40;;;;;;;10.60;2.53;;;21.10;99.90;;;;;;6632362;89;20219;-78
2022/06/19 04:59:41;;;;;;;9.98;2.40;;;20.30;99.90;;;;;;6637791;89;20207;-79
2022/06/19 05:09:42;;;;;;;8.75;2.37;;;20.00;99.90;;;;;;6637836;88;20202;-78
2022/06/19 05:19:42;;;;;;;9.63;2.50;;;19.60;99.90;;;;;;6634179;89;20968;-78
2022/06/19 05:29:43;;;;;;;12.20;2.95;;;19.50;99.90;;;;;;6660292;88;20194;-78
2022/06/19 05:39:43;;;;;;;13.33;4.00;;;19.20;99.90;;;;;;6707142;88;20219;-77
2022/06/19 05:49:44;;;;;;;11.90;3.85;;;19.00;99.90;;;;;;6707343;88;20512;-78
2022/06/19 05:59:45;;;;;;;14.40;4.37;;;19.00;99.90;;;;;;6708434;88;20219;-80
2022/06/19 06:09:45;;;;;;;12.50;4.07;;;19.00;99.90;;;;;;6706376;88;20214;-78
2022/06/19 06:29:50;;;;;;;16.15;3.72;;;19.30;99.90;;;;;;6733270;88;20191;-78
2022/06/19 06:39:50;;;;;;;12.40;3.45;;;19.80;99.90;;;;;;6734245;88;20209;-78
2022/06/19 06:49:51;;;;;;;10.90;3.70;;;19.80;99.90;;;;;;6730854;88;20235;-78
2022/06/19 06:59:51;;;;;;;12.43;3.40;;;20.00;99.90;;;;;;6732831;88;20205;-79
2022/06/19 07:09:52;;;;;;;9.18;3.12;;;20.50;99.90;;;;;;6727185;88;20343;-79
2022/06/19 07:19:53;;;;;;;11.45;2.95;;;20.80;99.90;;;;;;6733462;88;20372;-78
2022/06/19 07:29:53;;;;;;;8.93;2.60;;;21.50;99.90;;;;;;6733712;88;20190;-78
2022/06/19 07:39:55;;;;;;;10.73;2.80;;;21.00;99.90;;;;;;6733011;88;20184;-78
2022/06/19 07:50:11;;;;;;;15.15;3.53;;;20.50;99.90;;;;;;6733885;88;20198;-77
2022/06/19 08:00:16;;;;;;;12.10;3.20;;;20.00;99.90;;;;;;6734144;88;20234;-78
2022/06/19 08:10:23;;;;;;;10.82;3.03;;;21.10;99.90;;;;;;6729714;88;20729;-78
2022/06/19 08:20:24;;;;;;;12.73;3.12;;;21.80;99.90;;;;;;6733170;88;20189;-78
2022/06/19 08:30:31;;;;;;;13.65;3.75;;;21.70;99.90;;;;;;6734330;88;20214;-78
2022/06/19 08:40:58;;;;;;;7.93;3.30;;;22.40;99.90;;;;;;6750051;88;20186;-78
2022/06/19 08:51:01;;;;;;;10.55;3.55;;;23.30;99.90;;;;;;6737339;88;20181;-78
2022/06/19 09:01:18;;;;;;;14.30;2.85;;;23.50;99.90;;;;;;6747136;88;20692;-77
2022/06/19 09:11:26;;;;;;;11.95;2.37;;;23.20;99.80;;;;;;6730923;88;20210;-77
2022/06/19 09:21:36;;;;;;;9.20;2.47;;;23.10;99.70;;;;;;6728878;88;20215;-77
2022/06/19 09:31:53;;;;;;;11.63;3.87;;;23.90;98.20;;;;;;6736742;88;20181;-78
2022/06/19 09:42:14;;;;;;;13.05;3.15;;;25.00;97.20;;;;;;6729204;88;20197;-77
2022/06/19 09:52:23;;;;;;;9.40;3.30;;;24.30;96.90;;;;;;6731327;88;21011;-78
2022/06/19 10:02:45;;;;;;;11.73;3.00;;;24.90;96.00;;;;;;6730340;88;20312;-77
2022/06/19 10:12:49;;;;;;;11.52;3.30;;;25.40;95.70;;;;;;6734481;88;20205;-77
2022/06/19 10:22:56;;;;;;;13.93;3.70;;;26.30;94.70;;;;;;6734308;88;20244;-77
2022/06/19 10:33:13;;;;;;;19.83;4.03;;;25.80;94.60;;;;;;6733251;88;20192;-77
2022/06/19 10:43:35;;;;;;;16.95;4.10;;;25.20;95.80;;;;;;6732009;88;20297;-77
2022/06/19 10:53:39;;;;;;;14.52;4.20;;;24.50;96.90;;;;;;6738229;88;20192;-77
2022/06/19 11:04:08;;;;;;;15.18;4.18;;;25.00;97.10;;;;;;6734598;88;20283;-77
2022/06/19 11:14:30;;;;;;;16.37;4.20;;;25.00;97.50;;;;;;6727254;88;20660;-77
2022/06/19 11:24:41;;;;;;;14.00;4.20;;;25.50;96.80;;;;;;6734204;88;20229;-77
2022/06/19 11:34:53;;;;;;;11.00;3.90;;;25.40;97.50;;;;;;6728326;88;20712;-77
2022/06/19 11:44:58;;;;;;;12.07;4.50;;;25.40;98.40;;;;;;6730693;88;20180;-77
2022/06/19 11:55:01;;;;;;;10.43;3.80;;;25.00;98.10;;;;;;6729958;88;20222;-76
2022/06/19 12:05:06;;;;;;;11.77;4.03;;;25.40;98.00;;;;;;6732415;88;20311;-78
2022/06/19 12:15:13;;;;;;;8.88;3.95;;;26.10;97.30;;;;;;6732687;88;20642;-77
2022/06/19 12:25:28;;;;;;;12.60;3.92;;;27.10;96.40;;;;;;6737238;77;20410;-79
2022/06/19 12:35:34;;;;;;;14.20;4.20;;;28.50;95.10;;;;;;6656554;89;20264;-78
2022/06/19 12:45:49;;;;;;;10.98;3.75;;;29.50;93.80;;;;;;6636961;88;20261;-79
2022/06/19 12:55:52;;;;;;;10.18;4.00;;;30.00;92.70;;;;;;6632006;89;20216;-79
2022/06/19 13:06:18;;;;;;;14.07;4.07;;;30.00;92.00;;;;;;6654839;89;20244;-79
2022/06/19 13:16:39;;;;;;;13.82;4.32;;;29.50;92.20;;;;;;6639072;89;20333;-79
2022/06/19 13:27:15;;;;;;;15.10;3.87;;;29.80;91.90;;;;;;6636773;89;20214;-80
2022/06/19 13:37:31;;;;;;;14.05;4.30;;;29.90;91.50;;;;;;6630360;89;20629;-79
2022/06/19 13:47:42;;;;;;;11.27;3.83;;;28.60;92.50;;;;;;6655700;89;20184;-79
2022/06/19 13:58:17;;;;;;;11.65;3.03;;;28.50;92.60;;;;;;6654811;89;20291;-79
2022/06/19 14:08:42;;;;;;;13.07;3.35;;;28.70;91.80;;;;;;6633914;89;20314;-79
2022/06/19 14:19:01;;;;;;;11.65;3.10;;;28.10;91.70;;;;;;6651893;88;20200;-79
2022/06/19 14:29:43;;;;;;;12.63;3.97;;;28.60;91.40;;;;;;6641112;88;20219;-79
2022/06/19 14:39:45;;;;;;;12.10;3.45;;;27.70;91.50;;;;;;6647594;88;20660;-79
2022/06/19 14:50:22;;;;;;;13.60;3.87;;;27.30;92.10;;;;;;6646493;88;20196;-79
2022/06/19 15:00:28;;;;;;;13.38;4.00;;;27.50;92.00;;;;;;6621279;89;20213;-79
2022/06/19 15:10:35;;;;;;;13.60;3.55;;;27.60;91.90;;;;;;6620609;89;20244;-79
2022/06/19 15:20:42;;;;;;;10.00;3.03;;;27.70;92.20;;;;;;6620102;89;20692;-80
2022/06/19 15:30:42;;;;;;;12.77;3.00;;;28.20;91.80;;;;;;6635302;89;20202;-78
2022/06/19 15:40:44;;;;;;;9.45;3.00;;;27.60;92.20;;;;;;6638372;88;20245;-79
2022/06/19 15:50:54;;;;;;;9.57;3.03;;;27.60;92.50;;;;;;6644581;88;20209;-78
2022/06/19 16:00:59;;;;;;;14.30;3.28;;;27.90;92.20;;;;;;6647922;88;20263;-78
2022/06/19 16:10:59;;;;;;;9.45;2.60;;;27.80;92.70;;;;;;6649966;88;20310;-77
2022/06/19 16:21:03;;;;;;;10.23;2.90;;;28.40;92.30;;;;;;6641285;89;20205;-78
2022/06/19 16:31:16;;;;;;;8.52;2.87;;;27.40;93.10;;;;;;6641863;89;20262;-78
2022/06/19 16:51:52;;;;;;;10.73;2.62;;;27.00;93.60;;;;;;6641310;89;20617;-78
2022/06/19 17:01:58;;;;;;;10.32;3.45;;;26.90;93.50;;;;;;6649455;88;20193;-77
2022/06/19 17:12:05;;;;;;;13.60;3.10;;;26.70;93.30;;;;;;6639172;89;20193;-77
2022/06/19 17:22:09;;;;;;;9.68;2.70;;;26.90;93.60;;;;;;6650190;89;20213;-77
2022/06/19 17:32:27;;;;;;;13.07;3.22;;;26.90;93.50;;;;;;6643053;88;20192;-77
2022/06/19 17:42:35;;;;;;;9.55;2.80;;;26.20;94.00;;;;;;6650568;88;20678;-78
2022/06/19 17:52:38;;;;;;;9.98;2.37;;;26.50;94.00;;;;;;6644284;89;20200;-78
2022/06/19 18:02:45;;;;;;;7.07;1.90;;;24.80;95.60;;;;;;6657419;88;20711;-77
2022/06/19 18:12:46;;;;;;;8.65;2.30;;;24.00;96.80;;;;;;6645125;88;20181;-78
2022/06/19 18:22:46;;;;;;;10.23;2.60;;;23.50;97.70;;;;;;6651659;88;20196;-78
2022/06/19 18:32:47;;;;;;;10.40;2.37;;;23.80;97.70;;;;;;6666603;77;20661;-77
2022/06/19 18:42:48;;;;;;;8.20;2.75;;;23.40;98.20;;;;;;6701173;88;20329;-77
2022/06/19 18:52:50;;;;;;;10.15;2.92;;;22.70;99.90;;;;;;6694708;88;20207;-78
2022/06/19 19:02:51;;;;;;;5.35;1.92;;;22.30;99.90;;;;;;6694022;88;20213;-78
2022/06/19 19:12:53;;;;;;;8.20;2.17;;;22.10;99.90;;;;;;6713172;88;20305;-78
2022/06/19 19:22:54;;;;;;;6.00;1.95;;;22.00;99.90;;;;;;6716374;88;20178;-78
2022/06/19 19:32:58;;;;;;;8.07;2.00;;;21.70;99.90;;;;;;6706327;88;20178;-78
2022/06/19 19:42:59;;;;;;;3.43;1.47;;;21.70;99.90;;;;;;6701163;88;20187;-76
2022/06/19 19:52:59;;;;;;;7.23;1.67;;;21.70;99.90;;;;;;6697327;88;20214;-77
2022/06/19 20:03:00;;;;;;;6.97;2.03;;;21.70;99.90;;;;;;6700753;88;20206;-76
2022/06/19 20:13:00;;;;;;;7.95;2.00;;;21.50;99.90;;;;;;6706947;88;20314;-79
2022/06/19 20:23:01;;;;;;;8.73;2.03;;;21.10;99.90;;;;;;6702617;88;20246;-78
2022/06/19 20:33:02;;;;;;;5.60;2.03;;;20.80;99.90;;;;;;6700787;88;20209;-79
2022/06/19 20:43:04;;;;;;;6.70;1.85;;;21.00;99.90;;;;;;6703485;88;20208;-79
2022/06/19 20:53:05;;;;;;;9.00;2.08;;;20.50;99.90;;;;;;6709015;88;20316;-79
2022/06/19 21:03:07;;;;;;;4.32;1.77;;;20.40;99.90;;;;;;6713161;88;20329;-79
2022/06/19 21:13:17;;;;;;;7.05;1.95;;;20.50;99.90;;;;;;6710797;88;20255;-78
2022/06/19 21:23:24;;;;;;;8.00;1.92;;;20.50;99.90;;;;;;6708623;88;21439;-78
2022/06/19 21:33:27;;;;;;;7.28;1.90;;;20.40;99.90;;;;;;6704336;88;20193;-79
2022/06/19 21:43:30;;;;;;;4.80;1.60;;;20.10;99.90;;;;;;6711803;88;20250;-77
2022/06/19 21:53:30;;;;;;;5.82;2.08;;;20.10;99.90;;;;;;6710252;88;20650;-77
2022/06/19 22:03:31;;;;;;;6.12;2.00;;;20.00;99.90;;;;;;6717094;88;20226;-78
2022/06/19 22:13:32;;;;;;;5.47;1.60;;;19.70;99.90;;;;;;6715430;88;20181;-77
2022/06/19 22:23:35;;;;;;;5.97;2.10;;;19.60;99.90;;;;;;6710418;88;20208;-78
2022/06/19 22:33:36;;;;;;;6.57;2.00;;;19.20;99.90;;;;;;6711197;88;20724;-77
2022/06/19 22:43:37;;;;;;;9.82;2.15;;;19.30;99.90;;;;;;6712860;88;20182;-78
2022/06/19 22:53:38;;;;;;;8.70;1.90;;;18.90;99.90;;;;;;6698287;88;20701;-78
2022/06/19 23:03:38;;;;;;;7.25;2.30;;;19.00;99.90;;;;;;6720495;88;20237;-78
2022/06/19 23:13:39;;;;;;;8.18;1.98;;;18.60;99.90;;;;;;6723349;88;20225;-78
2022/06/19 23:23:39;;;;;;;5.97;2.03;;;18.60;99.90;;;;;;6712917;88;20206;-78
2022/06/19 23:33:40;;;;;;;8.35;2.10;;;18.50;99.90;;;;;;6715818;88;20186;-78
2022/06/19 23:43:42;;;;;;;8.10;3.05;;;18.50;99.90;;;;;;6711208;88;20644;-79
2022/06/19 23:53:43;;;;;;;10.35;3.03;;;18.20;99.90;;;;;;6709867;88;20586;-79
